createdAt,value
2023-02-04T00:02:04.515Z,6.38
2023-02-04T00:04:30.975Z,6.51
2023-02-04T00:06:57.429Z,6.33
2023-02-04T00:09:23.856Z,6.40
2023-02-04T00:11:50.360Z,6.41
2023-02-04T00:14:16.934Z,6.49
2023-02-04T00:16:43.398Z,6.42
2023-02-04T00:19:09.830Z,6.44
2023-02-04T00:21:36.315Z,6.41
2023-02-04T00:24:02.992Z,6.30
2023-02-04T00:26:29.462Z,6.29
2023-02-04T00:28:56.237Z,6.30
2023-02-04T00:31:22.807Z,6.26
2023-02-04T00:33:49.432Z,6.28
2023-02-04T00:36:15.903Z,6.28
2023-02-04T00:38:42.390Z,6.27
2023-02-04T00:41:08.864Z,6.20
2023-02-04T00:43:35.333Z,6.31
2023-02-04T00:46:01.849Z,6.29
2023-02-04T00:48:28.985Z,6.27
2023-02-04T00:50:55.659Z,6.38
2023-02-04T00:53:22.172Z,6.30
2023-02-04T00:55:48.621Z,6.23
2023-02-04T00:58:15.170Z,6.20
2023-02-04T01:00:41.989Z,6.16
2023-02-04T01:03:09.904Z,6.02
2023-02-04T01:05:36.598Z,6.02
2023-02-04T01:08:04.622Z,6.02
2023-02-04T01:10:31.416Z,5.98
2023-02-04T01:12:58.461Z,5.99
2023-02-04T01:15:24.946Z,5.99
2023-02-04T01:17:53.296Z,5.96
2023-02-04T01:20:19.817Z,5.99
2023-02-04T01:22:48.624Z,5.99
2023-02-04T01:25:15.145Z,5.98
2023-02-04T01:27:42.390Z,5.89
2023-02-04T01:30:09.663Z,5.86
2023-02-04T01:32:36.198Z,5.84
2023-02-04T01:35:03.323Z,5.85
2023-02-04T01:37:29.834Z,5.84
2023-02-04T01:39:56.279Z,5.82
2023-02-04T01:42:22.861Z,5.82
2023-02-04T01:44:49.800Z,5.79
2023-02-04T01:47:16.293Z,5.68
2023-02-04T01:49:43.236Z,5.68
2023-02-04T01:52:11.454Z,5.64
2023-02-04T01:54:38.241Z,5.58
2023-02-04T01:57:06.764Z,5.50
2023-02-04T01:59:33.834Z,5.43
2023-02-04T02:02:00.388Z,5.50
2023-02-04T02:04:33.084Z,5.52
2023-02-04T02:07:05.040Z,5.45
2023-02-04T02:09:33.768Z,5.37
2023-02-04T02:12:02.945Z,5.39
2023-02-04T02:14:29.470Z,5.26
2023-02-04T02:16:57.052Z,5.23
2023-02-04T02:19:32.279Z,5.18
2023-02-04T02:22:06.141Z,5.11
2023-02-04T02:24:34.799Z,5.14
2023-02-04T02:27:10.338Z,5.13
2023-02-04T02:29:39.822Z,5.09
2023-02-04T02:32:07.174Z,5.06
2023-02-04T02:34:34.735Z,5.09
2023-02-04T02:37:03.337Z,5.09
2023-02-04T02:39:30.220Z,5.12
2023-02-04T02:41:57.600Z,5.09
2023-02-04T02:44:25.513Z,5.11
2023-02-04T02:46:53.705Z,5.10
2023-02-04T02:49:21.088Z,5.06
2023-02-04T02:51:48.673Z,5.10
2023-02-04T02:54:24.452Z,5.02
2023-02-04T02:56:53.594Z,5.07
2023-02-04T02:59:22.937Z,5.07
2023-02-04T03:01:53.828Z,5.02
2023-02-04T03:04:22.557Z,4.98
2023-02-04T03:06:50.045Z,5.00
2023-02-04T03:09:16.888Z,5.06
2023-02-04T03:11:47.162Z,5.13
2023-02-04T03:14:13.886Z,5.12
2023-02-04T03:16:40.525Z,5.06
2023-02-04T03:19:08.637Z,4.98
2023-02-04T03:21:35.653Z,5.00
2023-02-04T03:24:04.240Z,4.96
2023-02-04T03:26:30.866Z,4.89
2023-02-04T03:28:58.936Z,4.94
2023-02-04T03:31:25.519Z,4.91
2023-02-04T03:33:52.088Z,4.93
2023-02-04T03:36:18.560Z,4.92
2023-02-04T03:38:45.111Z,4.86
2023-02-04T03:41:11.544Z,4.84
2023-02-04T03:43:38.102Z,4.89
2023-02-04T03:46:04.782Z,4.70
2023-02-04T03:48:31.383Z,4.82
2023-02-04T03:50:57.864Z,4.75
2023-02-04T03:53:24.508Z,4.76
2023-02-04T03:55:50.936Z,4.73
2023-02-04T03:58:17.418Z,4.75
2023-02-04T04:00:43.958Z,4.81
2023-02-04T04:03:10.524Z,4.78
2023-02-04T04:05:37.145Z,4.78
2023-02-04T04:08:03.687Z,4.82
2023-02-04T04:10:30.362Z,4.90
2023-02-04T04:12:57.052Z,4.81
2023-02-04T04:15:23.605Z,4.84
2023-02-04T04:17:50.075Z,4.72
2023-02-04T04:20:16.749Z,4.79
2023-02-04T04:22:43.357Z,4.71
2023-02-04T04:25:09.832Z,4.64
2023-02-04T04:27:36.306Z,4.68
2023-02-04T04:30:03.534Z,4.67
2023-02-04T04:32:30.121Z,4.67
2023-02-04T04:34:56.583Z,4.63
2023-02-04T04:37:23.013Z,4.69
2023-02-04T04:39:49.461Z,4.62
2023-02-04T04:42:15.952Z,4.58
2023-02-04T04:44:42.440Z,4.57
2023-02-04T04:47:08.951Z,4.58
2023-02-04T04:49:35.390Z,4.57
2023-02-04T04:52:01.823Z,4.57
2023-02-04T04:54:28.314Z,4.57
2023-02-04T04:56:54.830Z,4.53
2023-02-04T04:59:21.313Z,4.52
2023-02-04T05:01:47.736Z,4.56
2023-02-04T05:04:14.249Z,4.46
2023-02-04T05:06:40.710Z,4.47
2023-02-04T05:09:07.322Z,4.52
2023-02-04T05:11:33.822Z,4.63
2023-02-04T05:14:00.282Z,4.52
2023-02-04T05:16:26.773Z,4.34
2023-02-04T05:18:53.318Z,4.21
2023-02-04T05:21:19.781Z,4.05
2023-02-04T05:23:46.234Z,4.36
2023-02-04T05:26:19.578Z,4.43
2023-02-04T05:28:51.653Z,4.38
2023-02-04T05:31:18.304Z,4.55
2023-02-04T05:33:44.922Z,4.56
2023-02-04T05:36:11.366Z,4.42
2023-02-04T05:38:37.836Z,4.34
2023-02-04T05:41:04.359Z,4.57
2023-02-04T05:43:30.800Z,4.57
2023-02-04T05:45:57.932Z,4.70
2023-02-04T05:48:24.394Z,4.70
2023-02-04T05:50:50.920Z,4.70
2023-02-04T05:53:17.348Z,4.40
2023-02-04T05:55:43.958Z,4.36
2023-02-04T05:58:10.409Z,4.23
2023-02-04T06:00:36.892Z,4.35
2023-02-04T06:03:03.455Z,4.45
2023-02-04T06:05:29.989Z,4.43
2023-02-04T06:07:56.516Z,4.14
2023-02-04T06:10:22.963Z,4.28
2023-02-04T06:12:49.425Z,4.54
2023-02-04T06:15:16.129Z,4.51
2023-02-04T06:17:42.557Z,4.31
2023-02-04T06:20:10.732Z,4.15
2023-02-04T06:22:37.190Z,4.36
2023-02-04T06:25:04.026Z,4.05
2023-02-04T06:27:30.471Z,4.00
2023-02-04T06:29:57.427Z,4.05
2023-02-04T06:32:23.974Z,4.01
2023-02-04T06:34:50.446Z,4.08
2023-02-04T06:37:17.164Z,4.04
2023-02-04T06:39:43.954Z,4.21
2023-02-04T06:42:10.562Z,4.09
2023-02-04T06:44:37.026Z,4.38
2023-02-04T06:47:03.513Z,4.52
2023-02-04T06:49:29.957Z,4.64
2023-02-04T06:51:56.447Z,4.29
2023-02-04T06:54:22.909Z,4.12
2023-02-04T06:56:49.493Z,4.23
2023-02-04T06:59:15.966Z,4.33
2023-02-04T07:01:42.460Z,4.46
2023-02-04T07:04:08.988Z,4.57
2023-02-04T07:06:35.478Z,4.54
2023-02-04T07:09:01.974Z,4.47
2023-02-04T07:11:28.436Z,4.38
2023-02-04T07:13:54.899Z,4.18
2023-02-04T07:16:21.349Z,4.16
2023-02-04T07:18:47.779Z,4.18
2023-02-04T07:21:14.235Z,4.28
2023-02-04T07:23:40.664Z,4.45
2023-02-04T07:26:07.116Z,4.47
2023-02-04T07:28:33.559Z,4.55
2023-02-04T07:31:00.129Z,4.61
2023-02-04T07:33:26.701Z,4.67
2023-02-04T07:35:53.174Z,4.41
2023-02-04T07:38:19.646Z,4.22
2023-02-04T07:40:46.279Z,4.23
2023-02-04T07:43:12.932Z,4.42
2023-02-04T07:45:39.383Z,4.65
2023-02-04T07:48:06.066Z,4.67
2023-02-04T07:50:32.781Z,4.71
2023-02-04T07:52:59.311Z,4.66
2023-02-04T07:55:25.795Z,4.72
2023-02-04T07:57:52.414Z,4.84
2023-02-04T08:00:19.343Z,5.10
2023-02-04T08:02:45.801Z,5.06
2023-02-04T08:05:13.020Z,5.02
2023-02-04T08:07:39.891Z,4.85
2023-02-04T08:10:07.784Z,4.96
2023-02-04T08:12:34.418Z,4.79
2023-02-04T08:15:03.841Z,4.88
2023-02-04T08:17:30.337Z,5.04
2023-02-04T08:19:56.819Z,5.39
2023-02-04T08:22:23.283Z,6.27
2023-02-04T08:24:49.787Z,6.33
2023-02-04T08:27:16.457Z,6.24
2023-02-04T08:29:42.931Z,5.83
2023-02-04T08:32:13.302Z,6.29
2023-02-04T08:34:39.995Z,6.25
2023-02-04T08:37:06.523Z,6.51
2023-02-04T08:39:32.982Z,6.55
2023-02-04T08:41:59.435Z,6.60
2023-02-04T08:44:25.884Z,7.00
2023-02-04T08:46:52.380Z,6.91
2023-02-04T08:49:18.819Z,7.27
2023-02-04T08:51:45.619Z,7.15
2023-02-04T08:54:12.054Z,6.80
2023-02-04T08:56:38.528Z,7.37
2023-02-04T08:59:04.979Z,7.25
2023-02-04T09:01:31.841Z,7.07
2023-02-04T09:03:58.385Z,7.06
2023-02-04T09:06:24.902Z,6.80
2023-02-04T09:08:51.392Z,6.94
2023-02-04T09:11:17.904Z,6.50
2023-02-04T09:13:44.366Z,6.76
2023-02-04T09:16:10.989Z,6.77
2023-02-04T09:18:37.642Z,6.81
2023-02-04T09:21:04.434Z,6.83
2023-02-04T09:23:31.022Z,6.89
2023-02-04T09:25:57.475Z,6.09
2023-02-04T09:28:23.987Z,6.16
2023-02-04T09:30:50.476Z,6.53
2023-02-04T09:33:17.135Z,6.85
2023-02-04T09:35:43.702Z,7.13
2023-02-04T09:38:10.223Z,7.07
2023-02-04T09:40:46.724Z,7.03
2023-02-04T09:43:20.093Z,6.82
2023-02-04T09:45:49.361Z,6.92
2023-02-04T09:48:16.028Z,6.94
2023-02-04T09:50:42.654Z,6.79
2023-02-04T09:53:13.899Z,6.56
2023-02-04T09:55:43.173Z,6.68
2023-02-04T09:58:33.141Z,6.63
2023-02-04T10:01:05.823Z,6.53
2023-02-04T10:03:33.238Z,6.49
2023-02-04T10:05:59.681Z,6.64
2023-02-04T10:08:33.300Z,6.72
2023-02-04T10:10:59.960Z,6.57
2023-02-04T10:13:32.511Z,6.75
2023-02-04T10:15:59.985Z,6.99
2023-02-04T10:18:33.852Z,7.12
2023-02-04T10:21:23.488Z,6.86
2023-02-04T10:23:56.534Z,7.23
2023-02-04T10:26:25.761Z,7.68
2023-02-04T10:29:02.490Z,8.46
2023-02-04T10:31:35.919Z,7.97
2023-02-04T10:34:19.058Z,7.82
2023-02-04T10:36:48.448Z,7.74
2023-02-04T10:39:22.622Z,7.59
2023-02-04T10:41:54.258Z,7.74
2023-02-04T10:44:27.496Z,7.80
2023-02-04T10:47:04.104Z,7.88
2023-02-04T10:49:30.716Z,7.61
2023-02-04T10:51:57.939Z,7.72
2023-02-04T10:54:34.783Z,7.77
2023-02-04T10:57:17.125Z,7.81
2023-02-04T10:59:45.214Z,7.78
2023-02-04T11:02:33.280Z,7.61
2023-02-04T11:05:00.794Z,8.01
2023-02-04T11:07:28.024Z,8.80
2023-02-04T11:09:54.553Z,8.54
2023-02-04T11:12:43.499Z,8.69
2023-02-04T11:15:49.266Z,8.34
2023-02-04T11:18:19.698Z,8.32
2023-02-04T11:20:50.465Z,8.92
2023-02-04T11:23:26.086Z,8.59
2023-02-04T11:26:07.750Z,9.16
2023-02-04T11:28:46.110Z,9.15
2023-02-04T11:31:25.251Z,9.13
2023-02-04T11:34:07.543Z,8.57
2023-02-04T11:36:34.091Z,8.61
2023-02-04T11:39:08.512Z,8.54
2023-02-04T11:41:35.116Z,8.45
2023-02-04T11:44:01.843Z,7.78
2023-02-04T11:46:29.369Z,7.85
2023-02-04T11:48:58.113Z,7.94
2023-02-04T11:51:31.125Z,8.04
2023-02-04T11:53:57.659Z,7.87
2023-02-04T11:56:27.652Z,7.77
2023-02-04T11:58:57.523Z,8.51
2023-02-04T12:01:30.526Z,9.33
2023-02-04T12:04:02.958Z,10.09
2023-02-04T12:06:32.983Z,10.09
2023-02-04T12:09:31.495Z,10.23
2023-02-04T12:12:03.129Z,10.41
2023-02-04T12:14:33.764Z,9.42
2023-02-04T12:17:00.571Z,8.67
2023-02-04T12:19:27.858Z,8.18
2023-02-04T12:21:55.152Z,7.75
2023-02-04T12:24:21.704Z,7.90
2023-02-04T12:26:48.144Z,7.73
2023-02-04T12:29:14.651Z,7.47
2023-02-04T12:31:41.192Z,7.65
2023-02-04T12:34:07.832Z,7.84
2023-02-04T12:36:34.339Z,8.08
2023-02-04T12:39:00.837Z,8.32
2023-02-04T12:41:28.314Z,8.16
2023-02-04T12:43:55.655Z,8.01
2023-02-04T12:46:22.178Z,8.59
2023-02-04T12:48:48.930Z,8.93
2023-02-04T12:51:15.666Z,8.68
2023-02-04T12:53:42.220Z,9.21
2023-02-04T12:56:08.708Z,9.97
2023-02-04T12:58:35.197Z,10.17
2023-02-04T13:01:04.147Z,9.48
2023-02-04T13:03:31.037Z,8.48
2023-02-04T13:05:57.590Z,8.63
2023-02-04T13:08:24.156Z,8.60
2023-02-04T13:10:52.023Z,8.52
2023-02-04T13:13:19.613Z,8.26
2023-02-04T13:15:46.329Z,8.12
2023-02-04T13:18:12.919Z,7.97
2023-02-04T13:20:39.682Z,7.86
2023-02-04T13:23:06.329Z,8.26
2023-02-04T13:25:33.037Z,8.91
2023-02-04T13:27:59.735Z,9.09
2023-02-04T13:30:26.280Z,9.73
2023-02-04T13:32:52.813Z,9.48
2023-02-04T13:35:19.518Z,9.83
2023-02-04T13:37:46.014Z,10.31
2023-02-04T13:40:13.074Z,8.81
2023-02-04T13:42:39.756Z,8.95
2023-02-04T13:45:07.667Z,8.29
2023-02-04T13:47:34.156Z,8.13
2023-02-04T13:50:00.620Z,8.22
2023-02-04T13:52:27.043Z,8.36
2023-02-04T13:54:55.082Z,8.17
2023-02-04T13:57:21.686Z,7.98
2023-02-04T13:59:48.141Z,8.08
2023-02-04T14:02:14.639Z,7.96
2023-02-04T14:04:43.840Z,7.87
2023-02-04T14:07:10.542Z,7.82
2023-02-04T14:09:37.043Z,7.94
2023-02-04T14:12:03.846Z,7.84
2023-02-04T14:14:30.338Z,7.33
2023-02-04T14:16:56.897Z,7.54
2023-02-04T14:19:27.623Z,7.63
2023-02-04T14:21:54.140Z,7.57
2023-02-04T14:24:21.502Z,7.67
2023-02-04T14:26:47.978Z,7.54
2023-02-04T14:29:14.600Z,7.31
2023-02-04T14:31:41.123Z,7.46
2023-02-04T14:34:07.785Z,7.33
2023-02-04T14:36:34.312Z,7.24
2023-02-04T14:39:01.005Z,7.23
2023-02-04T14:41:30.007Z,7.26
2023-02-04T14:43:56.999Z,7.05
2023-02-04T14:46:23.857Z,7.06
2023-02-04T14:48:52.058Z,7.14
2023-02-04T14:51:19.623Z,7.34
2023-02-04T14:53:48.592Z,7.33
2023-02-04T14:56:16.665Z,7.22
2023-02-04T14:58:43.209Z,7.25
2023-02-04T15:01:09.782Z,7.10
2023-02-04T15:03:36.831Z,7.00
2023-02-04T15:06:04.112Z,7.04
2023-02-04T15:08:32.659Z,6.91
2023-02-04T15:10:59.147Z,6.95
2023-02-04T15:13:26.063Z,6.94
2023-02-04T15:15:52.492Z,6.95
2023-02-04T15:18:19.072Z,6.98
2023-02-04T15:20:45.557Z,6.99
2023-02-04T15:23:13.108Z,7.20
2023-02-04T15:25:40.167Z,7.34
2023-02-04T15:28:07.164Z,7.42
2023-02-04T15:30:34.258Z,7.40
2023-02-04T15:33:00.897Z,7.32
2023-02-04T15:35:27.359Z,7.20
2023-02-04T15:37:53.819Z,7.25
2023-02-04T15:40:20.486Z,7.25
2023-02-04T15:42:46.969Z,7.13
2023-02-04T15:45:13.457Z,7.16
2023-02-04T15:47:39.916Z,7.15
2023-02-04T15:50:08.963Z,7.00
2023-02-04T15:52:35.400Z,7.09
2023-02-04T15:55:01.890Z,7.13
2023-02-04T15:57:28.355Z,7.03
2023-02-04T15:59:54.821Z,6.85
2023-02-04T16:02:21.274Z,6.74
2023-02-04T16:04:47.935Z,6.54
2023-02-04T16:07:14.382Z,6.36
2023-02-04T16:09:40.889Z,6.24
2023-02-04T16:12:07.452Z,6.16
2023-02-04T16:14:34.150Z,6.05
2023-02-04T16:17:01.737Z,6.16
2023-02-04T16:19:28.942Z,5.92
2023-02-04T16:21:55.736Z,5.86
2023-02-04T16:24:22.489Z,6.01
2023-02-04T16:26:49.017Z,5.91
2023-02-04T16:29:16.435Z,5.85
2023-02-04T16:31:42.939Z,5.62
2023-02-04T16:34:09.411Z,5.75
2023-02-04T16:36:35.887Z,5.45
2023-02-04T16:39:02.881Z,5.50
2023-02-04T16:41:29.830Z,5.37
2023-02-04T16:43:56.319Z,5.41
2023-02-04T16:46:22.962Z,5.32
2023-02-04T16:48:49.461Z,5.32
2023-02-04T16:51:17.792Z,5.31
2023-02-04T16:53:44.277Z,5.30
2023-02-04T16:56:10.755Z,5.35
2023-02-04T16:58:38.298Z,5.54
2023-02-04T17:01:05.088Z,5.45
2023-02-04T17:03:31.741Z,5.40
2023-02-04T17:05:58.187Z,5.39
2023-02-04T17:08:24.736Z,5.46
2023-02-04T17:11:09.819Z,5.43
2023-02-04T17:13:36.366Z,5.39
2023-02-04T17:16:03.131Z,5.17
2023-02-04T17:18:31.179Z,5.04
2023-02-04T17:20:59.023Z,4.92
2023-02-04T17:23:26.897Z,4.80
2023-02-04T17:25:53.625Z,4.57
2023-02-04T17:28:20.132Z,4.51
2023-02-04T17:30:46.786Z,4.40
2023-02-04T17:33:13.241Z,4.35
2023-02-04T17:35:39.704Z,4.23
2023-02-04T17:38:06.156Z,4.17
2023-02-04T17:40:32.597Z,4.03
2023-02-04T17:42:59.158Z,3.80
2023-02-04T17:45:26.083Z,3.61
2023-02-04T17:47:52.625Z,3.35
2023-02-04T17:50:19.272Z,3.27
2023-02-04T17:52:45.708Z,3.16
2023-02-04T17:55:22.430Z,3.13
2023-02-04T17:57:49.640Z,3.13
2023-02-04T18:00:21.173Z,2.93
2023-02-04T18:02:50.205Z,2.91
2023-02-04T18:05:19.547Z,2.95
2023-02-04T18:08:12.483Z,2.77
2023-02-04T18:10:42.346Z,2.67
2023-02-04T18:13:22.000Z,2.54
2023-02-04T18:15:57.925Z,2.53
2023-02-04T18:18:33.627Z,2.69
2023-02-04T18:21:21.900Z,2.66
2023-02-04T18:24:13.582Z,2.62
2023-02-04T18:26:49.707Z,2.39
2023-02-04T18:29:27.885Z,2.12
2023-02-04T18:32:16.340Z,1.94
2023-02-04T18:34:53.961Z,1.90
2023-02-04T18:37:21.095Z,1.82
2023-02-04T18:39:47.848Z,1.81
2023-02-04T18:42:22.777Z,1.88
2023-02-04T18:44:49.291Z,1.84
2023-02-04T18:47:33.054Z,1.92
2023-02-04T18:50:01.523Z,2.05
2023-02-04T18:52:37.525Z,1.87
2023-02-04T18:55:21.960Z,2.05
2023-02-04T18:57:48.588Z,2.06
2023-02-04T19:00:27.462Z,1.96
2023-02-04T19:02:57.488Z,1.78
2023-02-04T19:05:29.102Z,1.70
2023-02-04T19:08:07.476Z,1.61
2023-02-04T19:10:42.268Z,1.55
2023-02-04T19:13:41.372Z,1.43
2023-02-04T19:16:20.194Z,1.36
2023-02-04T19:18:47.149Z,1.30
2023-02-04T19:21:19.590Z,1.15
2023-02-04T19:23:46.168Z,1.07
2023-02-04T19:26:29.313Z,1.06
2023-02-04T19:28:56.583Z,1.15
2023-02-04T19:31:34.557Z,1.24
2023-02-04T19:34:20.983Z,1.04
2023-02-04T19:36:47.440Z,0.80
2023-02-04T19:39:21.808Z,0.72
2023-02-04T19:41:50.475Z,0.65
2023-02-04T19:44:42.963Z,0.60
2023-02-04T19:47:36.348Z,0.80
2023-02-04T19:50:21.297Z,0.99
2023-02-04T19:52:49.592Z,1.02
2023-02-04T19:55:30.184Z,0.88
2023-02-04T19:58:00.200Z,0.94
2023-02-04T20:00:38.737Z,1.01
2023-02-04T20:03:23.112Z,0.99
2023-02-04T20:05:49.606Z,1.01
2023-02-04T20:08:34.395Z,0.98
2023-02-04T20:11:24.364Z,0.95
2023-02-04T20:13:57.306Z,0.90
2023-02-04T20:16:57.525Z,0.76
2023-02-04T20:19:30.055Z,0.78
2023-02-04T20:22:12.294Z,0.80
2023-02-04T20:24:41.400Z,0.72
2023-02-04T20:27:21.976Z,0.58
2023-02-04T20:29:49.948Z,0.63
2023-02-04T20:32:19.254Z,0.51
2023-02-04T20:34:48.140Z,0.44
2023-02-04T20:37:25.867Z,0.42
2023-02-04T20:39:52.330Z,0.44
2023-02-04T20:42:28.928Z,0.44
2023-02-04T20:45:18.624Z,0.42
2023-02-04T20:47:45.772Z,0.44
2023-02-04T20:50:36.235Z,0.39
2023-02-04T20:53:07.520Z,0.35
2023-02-04T20:55:34.899Z,0.30
2023-02-04T20:58:07.619Z,0.33
2023-02-04T21:00:35.034Z,0.37
2023-02-04T21:03:25.162Z,0.10
2023-02-04T21:05:52.774Z,0.08
2023-02-04T21:08:42.626Z,-0.33
2023-02-04T21:11:09.169Z,-0.48
2023-02-04T21:13:36.499Z,-0.43
2023-02-04T21:16:03.856Z,-0.25
2023-02-04T21:18:30.579Z,-0.57
2023-02-04T21:20:57.249Z,-0.72
2023-02-04T21:23:23.774Z,-0.71
2023-02-04T21:25:50.245Z,-0.47
2023-02-04T21:28:18.202Z,-0.61
2023-02-04T21:30:44.768Z,-0.81
2023-02-04T21:33:11.707Z,-0.80
2023-02-04T21:35:39.070Z,-0.84
2023-02-04T21:38:06.528Z,-0.58
2023-02-04T21:40:35.103Z,-0.80
2023-02-04T21:43:05.628Z,-0.75
2023-02-04T21:45:33.321Z,-0.54
2023-02-04T21:48:00.213Z,-0.37
2023-02-04T21:50:26.746Z,-0.27
2023-02-04T21:52:53.343Z,-0.25
2023-02-04T21:55:23.633Z,-0.23
2023-02-04T21:57:50.773Z,-0.20
2023-02-04T22:00:19.742Z,-0.15
2023-02-04T22:02:46.397Z,-0.20
2023-02-04T22:05:12.938Z,-0.29
2023-02-04T22:07:40.316Z,-0.32
2023-02-04T22:10:10.630Z,-0.36
2023-02-04T22:12:37.153Z,-0.91
2023-02-04T22:15:04.804Z,-0.97
2023-02-04T22:17:31.305Z,-1.01
2023-02-04T22:19:57.847Z,-1.20
2023-02-04T22:22:24.338Z,-1.12
2023-02-04T22:24:50.857Z,-0.89
2023-02-04T22:27:17.733Z,-0.72
2023-02-04T22:29:44.150Z,-0.65
2023-02-04T22:32:10.618Z,-0.61
2023-02-04T22:34:37.916Z,-0.57
2023-02-04T22:37:04.330Z,-0.45
2023-02-04T22:39:30.860Z,-0.43
2023-02-04T22:41:57.372Z,-0.27
2023-02-04T22:44:23.931Z,-0.13
2023-02-04T22:46:50.398Z,-0.58
2023-02-04T22:49:16.953Z,-0.56
2023-02-04T22:51:43.426Z,-0.58
2023-02-04T22:54:09.985Z,-0.50
2023-02-04T22:56:36.612Z,-0.53
2023-02-04T22:59:03.215Z,-0.55
2023-02-04T23:01:29.670Z,-0.17
2023-02-04T23:03:56.108Z,0.03
2023-02-04T23:06:22.881Z,0.06
2023-02-04T23:08:50.161Z,0.16
2023-02-04T23:11:18.523Z,0.15
2023-02-04T23:13:45.765Z,-0.15
2023-02-04T23:16:12.335Z,-0.11
2023-02-04T23:18:38.850Z,-0.02
2023-02-04T23:21:05.674Z,0.16
2023-02-04T23:23:32.265Z,0.00
2023-02-04T23:26:00.432Z,-0.13
2023-02-04T23:28:27.032Z,-0.11
2023-02-04T23:30:53.564Z,0.37
2023-02-04T23:33:20.071Z,0.05
2023-02-04T23:35:46.680Z,0.01
2023-02-04T23:38:13.170Z,0.18
2023-02-04T23:40:39.715Z,0.04
2023-02-04T23:43:06.207Z,0.02
2023-02-04T23:45:33.254Z,0.18
2023-02-04T23:48:00.072Z,0.31
2023-02-04T23:50:26.826Z,0.25
2023-02-04T23:52:53.357Z,0.40
2023-02-04T23:55:19.915Z,0.26
2023-02-04T23:57:49.658Z,0.15
